Time;durP1;ratioP1;P1;durP2;ratioP2;P2;SDS_P1;SDS_P2;PMS_P1;PMS_P2;Temp;Humidity;BMP_temperature;BMP_pressure;BME280_temperature;BME280_humidity;BME280_pressure;Samples;Min_cycle;Max_cycle;Signal;HPM_P1;HPM_P2
2022/01/03 00:00:31;;;;;;;0.70;0.70;;;9.70;99.90;;;;;;5032984;28;20710;-59
2022/01/03 00:03:00;;;;;;;2.10;1.20;;;9.70;99.90;;;;;;5033732;28;20201;-60
2022/01/03 00:05:28;;;;;;;1.50;0.70;;;9.80;99.90;;;;;;5033671;28;20253;-59
2022/01/03 00:07:57;;;;;;;1.77;1.10;;;9.80;99.90;;;;;;5033633;28;20210;-59
2022/01/03 00:10:26;;;;;;;1.00;0.85;;;9.90;99.90;;;;;;5033450;28;20226;-59
2022/01/03 00:12:54;;;;;;;1.85;1.00;;;9.90;99.90;;;;;;5033583;28;20210;-59
2022/01/03 00:15:21;;;;;;;1.92;1.30;;;10.00;99.90;;;;;;5033378;28;20225;-59
2022/01/03 00:17:49;;;;;;;1.45;1.25;;;10.00;99.90;;;;;;5033152;28;20206;-59
2022/01/03 00:20:17;;;;;;;1.92;1.73;;;10.10;99.90;;;;;;5033273;28;20268;-59
2022/01/03 00:22:51;;;;;;;2.03;1.45;;;10.20;99.90;;;;;;5033319;28;20226;-59
2022/01/03 00:25:20;;;;;;;3.13;1.60;;;10.20;99.90;;;;;;5036249;28;20252;-59
2022/01/03 00:27:59;;;;;;;3.08;1.80;;;10.30;99.90;;;;;;5037128;28;20198;-59
2022/01/03 00:30:27;;;;;;;3.03;1.83;;;10.40;99.90;;;;;;5036818;28;20230;-59
2022/01/03 00:32:54;;;;;;;3.47;1.55;;;10.40;99.90;;;;;;5037253;28;20451;-59
2022/01/03 00:35:22;;;;;;;3.95;1.80;;;10.50;99.90;;;;;;5036542;28;20226;-59
2022/01/03 00:37:50;;;;;;;5.57;1.75;;;10.50;99.90;;;;;;5036607;28;20207;-59
2022/01/03 00:40:19;;;;;;;3.08;1.40;;;10.60;99.90;;;;;;5036754;28;20245;-59
2022/01/03 00:42:46;;;;;;;5.37;1.90;;;10.60;99.90;;;;;;5036883;28;20198;-59
2022/01/03 00:45:15;;;;;;;10.43;1.98;;;10.60;99.90;;;;;;5036758;28;20445;-59
2022/01/03 00:47:42;;;;;;;3.60;1.70;;;10.70;99.90;;;;;;5036650;28;20670;-60
2022/01/03 00:50:12;;;;;;;2.42;1.42;;;10.70;99.90;;;;;;5036587;28;20476;-59
2022/01/03 00:52:39;;;;;;;2.07;1.50;;;10.70;99.90;;;;;;5036779;28;20663;-59
2022/01/03 00:55:08;;;;;;;4.20;2.03;;;10.70;99.90;;;;;;5036546;28;20888;-59
2022/01/03 00:57:51;;;;;;;5.27;1.90;;;10.80;99.90;;;;;;5036408;28;20844;-59
2022/01/03 01:00:20;;;;;;;3.80;1.77;;;10.90;99.90;;;;;;5038232;28;20480;-59
2022/01/03 01:02:57;;;;;;;2.73;1.53;;;10.90;99.90;;;;;;5038325;28;20456;-59
2022/01/03 01:05:24;;;;;;;4.10;1.70;;;10.90;99.90;;;;;;5038551;28;20444;-62
2022/01/03 01:07:56;;;;;;;7.87;2.47;;;11.00;99.90;;;;;;5038994;28;20452;-59
2022/01/03 01:10:28;;;;;;;2.20;1.37;;;11.00;99.90;;;;;;5038032;28;20886;-59
2022/01/03 01:12:56;;;;;;;5.00;1.60;;;11.00;99.90;;;;;;5037614;28;20444;-59
2022/01/03 01:15:26;;;;;;;5.43;1.42;;;10.90;99.90;;;;;;5036462;28;20476;-59
2022/01/03 01:17:54;;;;;;;3.65;1.60;;;10.80;99.90;;;;;;5037338;28;20551;-58
2022/01/03 01:20:22;;;;;;;5.75;1.80;;;10.60;99.90;;;;;;5036167;28;20254;-59
2022/01/03 01:22:49;;;;;;;3.85;1.20;;;10.40;99.90;;;;;;5036535;28;20209;-59
2022/01/03 01:27:45;;;;;;;6.80;1.42;;;10.20;99.90;;;;;;5036408;28;20199;-59
2022/01/03 01:28:14;;;;;;;1.48;1.15;;;10.10;99.90;;;;;;5035952;28;20202;-59
2022/01/03 01:30:44;;;;;;;6.05;1.48;;;10.10;99.90;;;;;;5036053;28;20226;-58
2022/01/03 01:33:12;;;;;;;4.70;1.10;;;10.00;99.90;;;;;;5035841;28;20207;-58
2022/01/03 01:35:43;;;;;;;1.70;1.10;;;10.00;99.90;;;;;;5035146;28;20227;-59
2022/01/03 01:38:11;;;;;;;8.85;1.70;;;9.90;99.90;;;;;;5036021;28;20187;-60
2022/01/03 01:40:45;;;;;;;5.10;1.45;;;9.80;99.90;;;;;;5035795;28;20253;-60
2022/01/03 01:43:13;;;;;;;5.85;1.55;;;9.60;99.90;;;;;;5035492;28;20225;-60
2022/01/03 01:45:45;;;;;;;4.28;1.50;;;9.40;99.90;;;;;;5035723;28;20205;-60
2022/01/03 01:48:13;;;;;;;2.78;1.00;;;9.20;99.90;;;;;;5035652;28;20194;-60
2022/01/03 01:50:41;;;;;;;2.00;1.27;;;9.00;99.90;;;;;;5035248;28;20737;-61
2022/01/03 01:53:10;;;;;;;2.08;1.30;;;8.90;99.90;;;;;;5035335;28;20241;-60
2022/01/03 01:55:40;;;;;;;2.50;1.15;;;8.80;99.90;;;;;;5035123;28;20574;-61
2022/01/03 01:58:24;;;;;;;4.35;1.25;;;8.80;99.90;;;;;;5035563;28;20206;-60
2022/01/03 02:00:59;;;;;;;4.80;2.25;;;8.70;99.90;;;;;;5035659;28;20228;-60
2022/01/03 02:03:38;;;;;;;5.95;1.70;;;8.70;99.90;;;;;;5035321;28;20534;-60
2022/01/03 02:06:31;;;;;;;4.40;1.67;;;8.60;99.90;;;;;;5035366;28;20182;-60
2022/01/03 02:09:05;;;;;;;7.53;1.80;;;8.60;99.90;;;;;;5034836;28;20202;-61
2022/01/03 02:11:48;;;;;;;5.57;1.10;;;8.50;99.90;;;;;;5035473;28;20193;-60
2022/01/03 02:14:15;;;;;;;5.43;2.30;;;8.50;99.90;;;;;;5035153;28;20211;-60
2022/01/03 02:16:44;;;;;;;6.55;2.13;;;8.50;99.90;;;;;;5035107;28;20301;-60
2022/01/03 02:19:12;;;;;;;5.95;1.75;;;8.50;99.90;;;;;;5035181;28;20686;-60
2022/01/03 02:21:41;;;;;;;3.75;1.70;;;8.50;99.90;;;;;;5035117;28;20206;-60
2022/01/03 02:24:08;;;;;;;5.10;2.00;;;8.50;99.90;;;;;;5035224;28;20206;-60
2022/01/03 02:26:35;;;;;;;4.57;1.30;;;8.50;99.90;;;;;;5037916;28;20209;-60
2022/01/03 02:29:03;;;;;;;6.20;1.40;;;8.50;99.90;;;;;;5035172;28;20198;-60
2022/01/03 02:31:31;;;;;;;4.47;1.58;;;8.60;99.90;;;;;;5035285;28;20202;-60
2022/01/03 02:34:00;;;;;;;7.90;2.00;;;8.60;99.90;;;;;;5035767;28;20203;-61
2022/01/03 02:36:28;;;;;;;5.60;1.60;;;8.70;99.90;;;;;;5035498;28;20241;-60
2022/01/03 02:38:56;;;;;;;5.82;1.92;;;8.70;99.90;;;;;;5035199;28;20218;-60
2022/01/03 02:41:24;;;;;;;2.97;1.42;;;8.70;99.90;;;;;;5035038;28;20210;-59
2022/01/03 02:43:51;;;;;;;7.60;1.65;;;8.70;99.90;;;;;;5037048;28;20252;-60
2022/01/03 02:46:19;;;;;;;5.38;1.60;;;8.70;99.90;;;;;;5039057;28;20217;-59
2022/01/03 02:48:46;;;;;;;6.63;1.70;;;8.70;99.90;;;;;;5039843;28;20206;-60
2022/01/03 02:51:14;;;;;;;6.10;1.90;;;8.70;99.90;;;;;;5039771;28;20228;-60
2022/01/03 02:53:41;;;;;;;5.55;1.98;;;8.80;99.90;;;;;;5040260;28;20202;-61
2022/01/03 02:56:09;;;;;;;10.68;2.20;;;8.80;99.90;;;;;;5039018;28;20234;-61
2022/01/03 02:58:36;;;;;;;5.25;1.33;;;8.80;99.90;;;;;;5037915;28;20202;-60
2022/01/03 03:01:04;;;;;;;4.15;1.63;;;8.90;99.90;;;;;;5035421;28;20225;-60
2022/01/03 03:03:31;;;;;;;10.13;1.92;;;9.00;99.90;;;;;;5035525;28;20217;-60
2022/01/03 03:05:59;;;;;;;8.00;1.60;;;9.00;99.90;;;;;;5034521;28;20205;-60
2022/01/03 03:08:27;;;;;;;10.18;1.60;;;9.00;99.90;;;;;;5034178;28;20241;-60
2022/01/03 03:10:54;;;;;;;5.82;2.10;;;9.10;99.90;;;;;;5033999;28;20261;-60
2022/01/03 03:13:23;;;;;;;6.45;2.05;;;9.10;99.90;;;;;;5033724;28;20209;-60
2022/01/03 03:15:50;;;;;;;11.35;2.53;;;9.20;99.90;;;;;;5033994;28;20250;-59
2022/01/03 03:18:17;;;;;;;10.50;2.03;;;9.10;99.90;;;;;;5033970;28;20203;-61
2022/01/03 03:20:45;;;;;;;11.82;2.20;;;9.10;99.90;;;;;;5033979;28;20222;-60
2022/01/03 03:23:13;;;;;;;7.30;2.40;;;9.10;99.90;;;;;;5034381;28;20289;-60
2022/01/03 03:25:40;;;;;;;7.45;3.38;;;9.10;99.90;;;;;;5034359;28;20202;-60
2022/01/03 03:28:09;;;;;;;5.32;2.45;;;9.10;99.90;;;;;;5033849;28;20206;-60
2022/01/03 03:30:40;;;;;;;12.00;2.97;;;9.10;99.90;;;;;;5033609;28;20614;-60
2022/01/03 03:33:09;;;;;;;11.23;2.35;;;9.20;99.90;;;;;;5034892;28;20186;-60
2022/01/03 03:35:36;;;;;;;7.18;2.20;;;9.20;99.90;;;;;;5034429;28;20233;-60
2022/01/03 03:38:04;;;;;;;9.27;2.50;;;9.20;99.90;;;;;;5033882;28;20198;-60
2022/01/03 03:40:31;;;;;;;4.82;1.90;;;9.30;99.90;;;;;;5033692;28;20231;-60
2022/01/03 03:42:58;;;;;;;6.82;1.98;;;9.30;99.90;;;;;;5033860;28;20206;-60
2022/01/03 03:45:25;;;;;;;13.60;3.00;;;9.40;99.90;;;;;;5033384;28;20688;-60
2022/01/03 03:47:55;;;;;;;5.03;2.05;;;9.40;99.90;;;;;;5033507;28;20206;-60
2022/01/03 03:50:23;;;;;;;6.68;3.35;;;9.40;99.90;;;;;;5034603;28;20313;-60
2022/01/03 03:52:50;;;;;;;6.32;2.60;;;9.40;99.90;;;;;;5034198;28;20202;-60
2022/01/03 03:55:17;;;;;;;9.15;2.72;;;9.50;99.90;;;;;;5034466;28;20218;-60
2022/01/03 03:57:44;;;;;;;19.73;2.50;;;9.50;99.90;;;;;;5033986;28;20552;-60
2022/01/03 04:00:14;;;;;;;7.25;2.30;;;9.50;99.90;;;;;;5033460;28;20227;-60
2022/01/03 04:02:42;;;;;;;10.98;2.42;;;9.50;99.90;;;;;;5033937;28;20667;-60
2022/01/03 04:05:11;;;;;;;5.72;1.92;;;9.50;99.90;;;;;;5034050;28;20221;-60
2022/01/03 04:09:07;;;;;;;11.25;2.95;;;9.60;99.90;;;;;;5093987;27;20534;-60
2022/01/03 04:11:34;;;;;;;7.97;2.30;;;9.70;99.90;;;;;;5094802;28;20303;-58
2022/01/03 04:14:01;;;;;;;5.53;2.00;;;9.70;99.90;;;;;;5094547;28;20208;-60
2022/01/03 04:16:28;;;;;;;5.90;2.05;;;9.70;99.90;;;;;;5093560;28;20215;-60
2022/01/03 04:18:55;;;;;;;6.30;2.20;;;9.70;99.90;;;;;;5092213;28;20205;-61
2022/01/03 04:21:22;;;;;;;7.10;2.35;;;9.80;99.90;;;;;;5092024;28;20668;-60
2022/01/03 04:23:49;;;;;;;5.18;2.42;;;9.80;99.90;;;;;;5091807;28;20201;-60
2022/01/03 04:26:18;;;;;;;9.77;2.53;;;9.80;99.90;;;;;;5093510;28;20216;-60
2022/01/03 04:28:45;;;;;;;6.57;2.65;;;9.80;99.90;;;;;;5092759;28;20227;-60
2022/01/03 04:31:12;;;;;;;9.43;2.08;;;9.80;99.90;;;;;;5082401;22;20229;-56
2022/01/03 04:33:39;;;;;;;7.90;2.30;;;9.80;99.90;;;;;;5050183;28;20209;-54
2022/01/03 04:36:07;;;;;;;10.32;2.60;;;9.80;99.90;;;;;;5049848;28;20210;-56
2022/01/03 04:38:34;;;;;;;11.85;2.65;;;9.80;99.90;;;;;;5050127;28;20215;-56
2022/01/03 04:41:02;;;;;;;9.52;2.75;;;9.80;99.90;;;;;;5049741;28;20260;-56
2022/01/03 04:43:33;;;;;;;11.45;3.33;;;9.80;99.90;;;;;;5050123;28;20201;-56
2022/01/03 04:46:00;;;;;;;7.40;2.65;;;9.80;99.90;;;;;;5050019;28;20186;-56
2022/01/03 04:48:27;;;;;;;12.52;3.30;;;9.80;99.90;;;;;;5049936;28;20226;-57
2022/01/03 04:50:54;;;;;;;13.52;2.35;;;9.80;99.90;;;;;;5049693;28;20232;-57
2022/01/03 04:53:25;;;;;;;8.63;2.65;;;9.80;99.90;;;;;;5049563;28;20208;-57
2022/01/03 04:55:52;;;;;;;10.40;3.08;;;9.90;99.90;;;;;;5049994;28;20226;-57
2022/01/03 04:58:19;;;;;;;6.82;2.30;;;9.90;99.90;;;;;;5049387;28;20194;-57
2022/01/03 05:00:48;;;;;;;8.40;2.08;;;9.90;99.90;;;;;;5049272;28;20733;-57
2022/01/03 05:03:16;;;;;;;13.40;2.67;;;9.90;99.90;;;;;;5049702;28;20198;-57
2022/01/03 05:05:43;;;;;;;9.85;2.75;;;9.90;99.90;;;;;;5049718;28;20201;-56
2022/01/03 05:08:10;;;;;;;10.25;2.05;;;9.80;99.90;;;;;;5049556;28;20229;-56
2022/01/03 05:10:37;;;;;;;10.77;3.03;;;9.80;99.90;;;;;;5049133;28;20229;-57
2022/01/03 05:13:05;;;;;;;13.23;2.40;;;9.80;99.90;;;;;;5050680;28;20210;-56
2022/01/03 05:15:32;;;;;;;12.90;2.38;;;9.80;99.90;;;;;;5050380;28;20202;-57
2022/01/03 05:18:00;;;;;;;9.02;2.75;;;9.70;99.90;;;;;;5050699;28;20597;-58
2022/01/03 05:20:27;;;;;;;13.65;3.88;;;9.70;99.90;;;;;;5037007;28;20218;-56
2022/01/03 05:22:54;;;;;;;12.82;2.42;;;9.60;99.90;;;;;;5037520;28;20725;-56
2022/01/03 05:25:22;;;;;;;6.63;2.25;;;9.60;99.90;;;;;;5038114;28;20206;-57
2022/01/03 05:27:49;;;;;;;9.93;2.53;;;9.60;99.90;;;;;;5038503;28;20226;-56
2022/01/03 05:30:16;;;;;;;13.52;3.30;;;9.60;99.90;;;;;;5038050;28;20284;-56
2022/01/03 05:32:44;;;;;;;7.90;2.20;;;9.50;99.90;;;;;;5036849;28;20693;-56
2022/01/03 05:35:12;;;;;;;6.93;2.50;;;9.50;99.90;;;;;;5037423;28;20206;-58
2022/01/03 05:37:39;;;;;;;7.93;2.65;;;9.50;99.90;;;;;;5036911;28;20202;-56
2022/01/03 05:40:08;;;;;;;6.70;2.33;;;9.50;99.90;;;;;;5035635;28;20739;-56
2022/01/03 05:42:35;;;;;;;11.80;2.95;;;9.50;99.90;;;;;;5035700;28;20206;-56
2022/01/03 05:45:04;;;;;;;8.98;3.45;;;9.40;99.90;;;;;;5035423;28;20229;-56
2022/01/03 05:47:31;;;;;;;12.80;2.78;;;9.30;99.90;;;;;;5035094;28;20223;-56
2022/01/03 05:49:59;;;;;;;7.40;2.60;;;9.30;99.90;;;;;;5035433;28;20226;-56
2022/01/03 05:52:28;;;;;;;13.25;4.30;;;9.30;99.90;;;;;;5035516;28;20206;-56
2022/01/03 05:54:56;;;;;;;9.82;2.30;;;9.30;99.90;;;;;;5035998;28;20558;-56
2022/01/03 05:57:23;;;;;;;6.78;2.72;;;9.30;99.90;;;;;;5035124;28;20210;-56
2022/01/03 05:59:50;;;;;;;11.88;3.38;;;9.40;99.90;;;;;;5034929;28;20229;-57
2022/01/03 06:02:17;;;;;;;10.38;2.90;;;9.40;99.90;;;;;;5035302;28;20206;-57
2022/01/03 06:04:56;;;;;;;11.18;3.13;;;9.50;99.90;;;;;;5035732;28;20700;-57
2022/01/03 06:07:23;;;;;;;13.68;3.22;;;9.50;99.90;;;;;;5035264;28;20193;-56
2022/01/03 06:09:52;;;;;;;13.98;3.13;;;9.60;99.90;;;;;;5034897;28;20225;-56
2022/01/03 06:12:20;;;;;;;8.73;3.28;;;9.70;99.90;;;;;;5034725;28;20678;-55
2022/01/03 06:14:48;;;;;;;14.32;2.90;;;9.70;99.90;;;;;;5034472;28;20248;-55
2022/01/03 06:17:17;;;;;;;14.20;3.63;;;9.70;99.90;;;;;;5035008;28;20206;-56
2022/01/03 06:19:45;;;;;;;7.90;3.10;;;9.60;99.90;;;;;;5034746;28;20230;-56
2022/01/03 06:22:12;;;;;;;11.65;2.90;;;9.60;99.90;;;;;;5034659;28;20203;-56
2022/01/03 06:24:40;;;;;;;13.93;3.22;;;9.50;99.90;;;;;;5035016;28;20203;-55
2022/01/03 06:27:09;;;;;;;12.23;3.35;;;9.50;99.90;;;;;;5035230;28;20201;-56
2022/01/03 06:29:36;;;;;;;4.85;2.90;;;9.50;99.90;;;;;;5034401;28;20226;-56
2022/01/03 06:32:03;;;;;;;13.85;3.55;;;9.50;99.90;;;;;;5033869;28;20647;-56
2022/01/03 06:34:30;;;;;;;9.43;3.13;;;9.50;99.90;;;;;;5034979;28;20271;-56
2022/01/03 06:36:58;;;;;;;15.80;3.33;;;9.50;99.90;;;;;;5034787;28;20627;-56
2022/01/03 06:39:25;;;;;;;8.80;3.03;;;9.50;99.90;;;;;;5034251;28;20646;-57
2022/01/03 06:41:52;;;;;;;10.68;2.88;;;9.50;99.90;;;;;;5034486;28;20202;-56
2022/01/03 06:44:20;;;;;;;12.40;4.25;;;9.50;99.90;;;;;;5034252;28;20217;-56
2022/01/03 06:46:48;;;;;;;15.30;3.58;;;9.50;99.90;;;;;;5034320;28;20202;-56
2022/01/03 06:49:16;;;;;;;22.08;3.60;;;9.60;99.90;;;;;;5034484;28;20701;-56
2022/01/03 06:51:43;;;;;;;9.98;2.90;;;9.60;99.90;;;;;;5034286;28;20238;-56
2022/01/03 06:54:12;;;;;;;8.82;3.70;;;9.60;99.90;;;;;;5034473;28;20625;-56
2022/01/03 06:56:40;;;;;;;14.32;3.85;;;9.60;99.90;;;;;;5034184;28;20576;-56
2022/01/03 06:59:07;;;;;;;8.80;3.05;;;9.60;99.90;;;;;;5034249;28;20202;-56
2022/01/03 07:01:36;;;;;;;8.93;3.08;;;9.50;99.90;;;;;;5034243;28;20313;-56
2022/01/03 07:04:03;;;;;;;9.75;3.80;;;9.50;99.90;;;;;;5034057;28;20210;-56
2022/01/03 07:06:32;;;;;;;13.38;3.88;;;9.50;99.90;;;;;;5035186;28;20202;-57
2022/01/03 07:08:59;;;;;;;7.88;3.17;;;9.50;99.90;;;;;;5034345;28;20309;-57
2022/01/03 07:11:26;;;;;;;13.57;3.47;;;9.50;99.90;;;;;;5034123;28;20225;-56
2022/01/03 07:14:04;;;;;;;11.55;3.53;;;9.50;99.90;;;;;;5034498;28;20206;-57
2022/01/03 07:19:17;;;;;;;17.63;3.70;;;9.60;99.90;;;;;;5034055;28;20252;-56
2022/01/03 07:21:44;;;;;;;8.10;3.50;;;9.60;99.90;;;;;;5033768;28;20685;-56
2022/01/03 07:24:12;;;;;;;8.52;3.03;;;9.60;99.90;;;;;;5033736;28;20237;-56
2022/01/03 07:26:39;;;;;;;8.90;3.67;;;9.70;99.90;;;;;;5034507;28;20210;-57
2022/01/03 07:29:06;;;;;;;15.02;3.83;;;9.70;99.90;;;;;;5034201;28;20690;-56
2022/01/03 07:31:33;;;;;;;14.65;4.38;;;9.70;99.90;;;;;;5033413;28;20226;-56
2022/01/03 07:34:00;;;;;;;10.65;5.05;;;9.70;99.90;;;;;;5033926;28;20210;-58
2022/01/03 07:36:30;;;;;;;9.05;3.53;;;9.60;99.90;;;;;;5033628;28;20202;-56
2022/01/03 07:38:57;;;;;;;11.65;3.72;;;9.60;99.90;;;;;;5033730;28;20684;-58
2022/01/03 07:41:25;;;;;;;7.80;2.88;;;9.50;99.90;;;;;;5033723;28;20229;-57
2022/01/03 07:43:52;;;;;;;12.82;3.85;;;9.60;99.90;;;;;;5033196;28;20237;-56
2022/01/03 07:46:19;;;;;;;14.60;3.85;;;9.50;99.90;;;;;;5033395;28;20205;-58
2022/01/03 07:48:46;;;;;;;13.95;4.40;;;9.50;99.90;;;;;;5033668;28;20225;-56
2022/01/03 07:51:13;;;;;;;12.20;4.07;;;9.50;99.90;;;;;;5033301;28;20226;-57
2022/01/03 07:53:42;;;;;;;13.40;3.90;;;9.50;99.90;;;;;;5033440;28;20198;-57
2022/01/03 07:56:10;;;;;;;14.68;4.78;;;9.50;99.90;;;;;;5033287;28;20206;-58
2022/01/03 07:58:38;;;;;;;14.45;4.25;;;9.50;99.90;;;;;;5033324;28;20287;-57
2022/01/03 08:01:05;;;;;;;10.25;3.72;;;9.60;99.90;;;;;;5033162;28;20226;-58
2022/01/03 08:03:32;;;;;;;17.98;4.72;;;9.60;99.90;;;;;;5033018;28;20577;-57
2022/01/03 08:05:59;;;;;;;10.07;4.07;;;9.70;99.90;;;;;;5033052;28;20591;-58
2022/01/03 08:08:26;;;;;;;15.52;4.47;;;9.70;99.90;;;;;;5033180;28;20231;-58
2022/01/03 08:10:55;;;;;;;24.02;5.40;;;9.70;99.90;;;;;;5033056;28;20228;-58
2022/01/03 08:13:22;;;;;;;15.32;3.80;;;9.80;99.90;;;;;;5033118;28;20666;-56
2022/01/03 08:15:49;;;;;;;18.63;4.40;;;9.80;99.90;;;;;;5033706;28;20206;-55
2022/01/03 08:18:16;;;;;;;16.25;4.10;;;9.80;99.90;;;;;;5032853;28;20202;-58
2022/01/03 08:20:43;;;;;;;15.30;4.90;;;9.80;99.90;;;;;;5032796;28;20260;-57
2022/01/03 08:23:10;;;;;;;11.20;4.50;;;9.80;99.90;;;;;;5033316;28;20225;-57
2022/01/03 08:25:38;;;;;;;9.52;3.92;;;9.90;99.90;;;;;;5032660;28;20205;-58
2022/01/03 08:28:07;;;;;;;17.95;4.22;;;9.90;99.90;;;;;;5032985;28;20234;-58
2022/01/03 08:30:36;;;;;;;8.88;4.65;;;9.90;99.90;;;;;;5032681;28;20237;-58
2022/01/03 08:33:03;;;;;;;12.38;4.72;;;9.90;99.90;;;;;;5033187;28;20233;-58
2022/01/03 08:35:31;;;;;;;11.07;3.95;;;9.80;99.90;;;;;;5032722;28;20206;-58
2022/01/03 08:37:59;;;;;;;17.23;4.78;;;9.70;99.90;;;;;;5032714;28;20697;-58
2022/01/03 08:40:27;;;;;;;10.93;3.55;;;9.70;99.90;;;;;;5032843;28;20226;-58
2022/01/03 08:42:54;;;;;;;20.95;4.35;;;9.80;99.90;;;;;;5032474;28;20202;-58
2022/01/03 08:45:22;;;;;;;12.90;4.35;;;9.80;99.90;;;;;;5032942;28;20229;-56
2022/01/03 08:47:49;;;;;;;11.48;3.75;;;9.80;99.90;;;;;;5032825;28;20198;-58
2022/01/03 08:50:18;;;;;;;12.82;3.85;;;9.90;99.90;;;;;;5032346;28;20222;-58
2022/01/03 08:52:45;;;;;;;10.85;4.78;;;10.00;99.90;;;;;;5032343;28;20301;-58
2022/01/03 08:55:12;;;;;;;11.80;3.97;;;10.00;99.90;;;;;;5035134;28;20203;-56
2022/01/03 08:57:40;;;;;;;14.45;4.28;;;10.10;99.90;;;;;;5036291;28;20207;-59
2022/01/03 09:00:09;;;;;;;14.33;4.00;;;10.20;99.90;;;;;;5036116;28;20226;-58
2022/01/03 09:02:37;;;;;;;9.57;3.78;;;10.20;99.90;;;;;;5036084;28;20836;-58
2022/01/03 09:05:05;;;;;;;12.88;4.53;;;10.20;99.90;;;;;;5036480;28;20202;-56
2022/01/03 09:07:32;;;;;;;13.68;4.13;;;10.30;99.90;;;;;;5037484;28;20307;-57
2022/01/03 09:09:59;;;;;;;15.48;5.47;;;10.30;99.90;;;;;;5036375;28;20233;-57
2022/01/03 09:12:26;;;;;;;13.03;4.13;;;10.30;99.90;;;;;;5039021;28;20213;-57
2022/01/03 09:14:54;;;;;;;18.83;3.97;;;10.30;99.90;;;;;;5036931;28;20442;-57
2022/01/03 09:17:21;;;;;;;10.67;3.90;;;10.40;99.90;;;;;;5036061;28;20451;-57
2022/01/03 09:19:50;;;;;;;11.23;4.20;;;10.40;99.90;;;;;;5035755;28;20793;-57
2022/01/03 09:22:21;;;;;;;14.43;3.78;;;10.50;99.90;;;;;;5036091;28;21012;-57
2022/01/03 09:24:54;;;;;;;8.93;5.20;;;10.50;99.90;;;;;;5036020;28;20194;-57
2022/01/03 09:30:09;;;;;;;13.40;4.20;;;10.50;99.90;;;;;;5035514;28;20535;-57
2022/01/03 09:32:36;;;;;;;7.53;3.50;;;10.50;99.90;;;;;;5035972;28;20459;-57
2022/01/03 09:35:06;;;;;;;11.43;3.97;;;10.60;99.90;;;;;;5035613;28;20449;-57
2022/01/03 09:37:34;;;;;;;13.45;3.90;;;10.60;99.60;;;;;;5035325;28;20444;-56
2022/01/03 09:40:02;;;;;;;12.13;3.60;;;10.60;99.10;;;;;;5035775;28;20594;-56
2022/01/03 09:42:31;;;;;;;8.10;4.07;;;10.60;99.00;;;;;;5035585;28;20890;-56
2022/01/03 09:45:02;;;;;;;10.47;4.27;;;10.60;98.70;;;;;;5035418;28;20441;-58
2022/01/03 09:47:31;;;;;;;17.83;4.23;;;10.60;98.80;;;;;;5035508;28;20524;-58
2022/01/03 09:50:00;;;;;;;13.27;4.33;;;10.70;98.70;;;;;;5035467;28;20493;-55
2022/01/03 09:52:31;;;;;;;16.20;4.63;;;10.70;98.40;;;;;;5035273;28;20981;-57
2022/01/03 09:55:00;;;;;;;13.07;4.20;;;10.70;98.20;;;;;;5035710;28;20469;-57
2022/01/03 09:57:30;;;;;;;9.00;3.80;;;10.70;98.30;;;;;;5034828;28;20213;-58
2022/01/03 09:59:59;;;;;;;12.13;3.88;;;10.70;98.30;;;;;;5035720;28;20465;-57
2022/01/03 10:02:27;;;;;;;8.23;3.90;;;10.60;98.20;;;;;;5036001;28;20548;-56
2022/01/03 10:04:54;;;;;;;12.57;3.67;;;10.70;97.90;;;;;;5036101;28;20818;-57
2022/01/03 10:07:22;;;;;;;17.43;4.97;;;10.70;97.90;;;;;;5036690;28;20456;-56
2022/01/03 10:09:51;;;;;;;13.53;4.33;;;10.80;97.60;;;;;;5037573;28;20848;-57
2022/01/03 10:12:19;;;;;;;11.90;4.03;;;10.80;97.60;;;;;;5036053;28;20460;-58
2022/01/03 10:14:46;;;;;;;17.75;4.95;;;10.80;97.50;;;;;;5035685;28;20472;-56
2022/01/03 10:17:13;;;;;;;10.67;4.03;;;10.90;97.40;;;;;;5035500;28;20293;-56
2022/01/03 10:19:51;;;;;;;5.37;3.27;;;10.90;97.00;;;;;;5034905;28;20461;-56
2022/01/03 10:22:23;;;;;;;11.00;3.60;;;11.00;96.80;;;;;;5035772;28;20452;-55
2022/01/03 10:24:53;;;;;;;11.17;3.90;;;11.00;96.80;;;;;;5035069;28;20453;-57
2022/01/03 10:27:20;;;;;;;10.33;3.63;;;11.10;96.60;;;;;;5034887;28;20468;-57
2022/01/03 10:32:15;;;;;;;9.10;3.77;;;11.00;96.30;;;;;;5022510;28;20466;-61
2022/01/03 10:34:42;;;;;;;12.30;3.90;;;11.00;96.30;;;;;;5026012;28;20461;-61
2022/01/03 10:37:13;;;;;;;12.43;3.57;;;11.10;96.00;;;;;;5027224;28;20449;-60
2022/01/03 10:39:41;;;;;;;12.27;4.20;;;11.00;95.80;;;;;;5022698;28;20438;-60
2022/01/03 10:42:17;;;;;;;14.80;3.90;;;11.00;95.90;;;;;;5014928;28;20977;-59
2022/01/03 10:44:45;;;;;;;14.60;3.60;;;11.00;96.00;;;;;;5014967;28;20850;-60
2022/01/03 10:47:15;;;;;;;14.77;4.40;;;11.10;95.80;;;;;;5015032;28;20450;-60
2022/01/03 10:49:44;;;;;;;11.63;3.80;;;11.10;96.00;;;;;;5014815;28;20505;-59
2022/01/03 10:52:16;;;;;;;7.00;4.00;;;11.10;95.80;;;;;;5014347;28;20470;-60
2022/01/03 10:54:45;;;;;;;13.50;3.53;;;11.10;95.00;;;;;;5014567;28;20932;-60
2022/01/03 10:57:12;;;;;;;9.17;3.10;;;11.10;95.00;;;;;;5014367;28;20449;-60
2022/01/03 10:59:40;;;;;;;12.73;3.30;;;11.20;95.10;;;;;;5014703;28;20453;-60
2022/01/03 11:02:10;;;;;;;8.83;3.17;;;11.20;95.00;;;;;;5014272;28;20474;-59
2022/01/03 11:04:46;;;;;;;11.57;3.27;;;11.20;94.40;;;;;;5014369;28;20946;-59
2022/01/03 11:13:05;;;;;;;11.10;3.70;;;11.20;94.30;;;;;;5014328;28;20398;-60
2022/01/03 11:15:34;;;;;;;8.87;3.93;;;11.20;94.50;;;;;;5014191;28;20521;-60
2022/01/03 11:18:16;;;;;;;11.40;4.07;;;11.20;94.30;;;;;;5014186;28;20449;-59
2022/01/03 11:20:45;;;;;;;9.23;3.53;;;11.30;94.50;;;;;;5016517;28;20470;-59
2022/01/03 11:23:20;;;;;;;9.00;3.40;;;11.30;94.40;;;;;;5016397;28;20456;-59
2022/01/03 11:25:47;;;;;;;11.87;3.90;;;11.30;94.20;;;;;;5017271;28;20870;-61
2022/01/03 11:28:15;;;;;;;9.23;3.60;;;11.30;94.40;;;;;;5018337;28;20442;-61
2022/01/03 11:30:44;;;;;;;11.17;3.40;;;11.40;94.60;;;;;;5015866;28;20497;-59
2022/01/03 11:33:11;;;;;;;11.70;3.60;;;11.50;94.30;;;;;;5015842;28;20453;-60
2022/01/03 11:35:45;;;;;;;8.00;4.03;;;11.60;94.20;;;;;;5015743;28;20549;-60
2022/01/03 11:38:15;;;;;;;6.60;3.03;;;11.70;94.10;;;;;;5021908;28;20442;-59
2022/01/03 11:40:44;;;;;;;9.93;3.67;;;11.70;93.70;;;;;;5029344;28;20465;-58
2022/01/03 11:43:12;;;;;;;7.17;3.83;;;11.70;93.60;;;;;;5022131;28;20450;-59
2022/01/03 11:45:40;;;;;;;7.30;2.80;;;11.90;93.40;;;;;;5016340;28;20449;-60
2022/01/03 11:48:08;;;;;;;11.20;3.20;;;11.90;92.70;;;;;;5015174;28;20953;-60
2022/01/03 11:50:37;;;;;;;9.87;3.63;;;12.00;92.50;;;;;;5015887;28;20524;-61
2022/01/03 11:53:05;;;;;;;8.67;3.20;;;12.00;92.60;;;;;;5014845;28;20561;-60
2022/01/03 11:55:34;;;;;;;10.47;4.03;;;12.00;92.40;;;;;;5021474;28;20547;-59
2022/01/03 11:58:14;;;;;;;8.67;3.10;;;12.00;92.20;;;;;;5020588;28;20453;-60
2022/01/03 12:03:51;;;;;;;7.93;3.20;;;12.10;92.00;;;;;;5017314;28;20480;-61
2022/01/03 12:06:30;;;;;;;4.10;2.70;;;12.00;92.50;;;;;;5018465;28;20442;-59
2022/01/03 12:09:00;;;;;;;10.90;3.20;;;12.00;92.80;;;;;;5023825;28;20445;-60
2022/01/03 12:11:29;;;;;;;5.00;2.47;;;11.90;93.30;;;;;;5020075;28;20851;-61
2022/01/03 12:13:57;;;;;;;5.57;3.00;;;11.90;93.20;;;;;;5016837;28;20946;-60
2022/01/03 12:16:47;;;;;;;5.33;2.73;;;11.90;92.20;;;;;;5019813;28;20448;-60
2022/01/03 12:19:29;;;;;;;8.20;2.60;;;11.90;92.30;;;;;;5021163;28;20541;-60
2022/01/03 12:22:06;;;;;;;7.00;2.67;;;11.90;91.90;;;;;;5020186;28;20469;-60
2022/01/03 12:24:41;;;;;;;7.03;2.30;;;11.90;91.60;;;;;;5019546;28;20876;-60
2022/01/03 12:27:30;;;;;;;14.57;3.17;;;11.90;91.50;;;;;;5017133;28;20456;-60
2022/01/03 12:30:17;;;;;;;7.13;3.10;;;11.90;91.60;;;;;;5018221;28;20465;-60
2022/01/03 12:33:06;;;;;;;5.80;3.53;;;12.00;91.30;;;;;;5018932;28;20798;-60
2022/01/03 12:35:35;;;;;;;8.80;3.30;;;12.00;91.40;;;;;;5021234;28;20992;-59
2022/01/03 12:38:28;;;;;;;4.80;2.57;;;12.10;90.90;;;;;;5018180;28;20442;-60
2022/01/03 12:40:58;;;;;;;8.20;2.73;;;12.00;91.10;;;;;;5017995;28;20476;-60
2022/01/03 12:43:43;;;;;;;7.93;3.20;;;11.90;91.10;;;;;;5017818;28;20503;-60
2022/01/03 12:46:30;;;;;;;11.13;3.47;;;11.90;91.40;;;;;;5018157;28;20507;-59
2022/01/03 12:49:30;;;;;;;11.73;3.00;;;11.80;91.50;;;;;;5013994;28;20837;-59
2022/01/03 12:52:16;;;;;;;7.90;3.40;;;11.70;91.70;;;;;;5017775;28;20918;-61
2022/01/03 12:54:44;;;;;;;11.03;3.33;;;11.70;92.00;;;;;;5018401;28;20415;-60
2022/01/03 12:57:17;;;;;;;11.27;2.90;;;11.60;92.20;;;;;;5024235;28;20460;-61
2022/01/03 12:59:45;;;;;;;8.57;2.87;;;11.50;92.20;;;;;;5029361;28;20423;-59
2022/01/03 13:02:32;;;;;;;9.70;3.10;;;11.50;92.20;;;;;;5026525;28;20796;-60
2022/01/03 13:05:02;;;;;;;7.23;2.73;;;11.40;92.60;;;;;;5028838;28;20812;-59
2022/01/03 13:07:31;;;;;;;8.17;2.70;;;11.40;92.40;;;;;;5022067;28;20433;-59
2022/01/03 13:09:58;;;;;;;5.77;2.80;;;11.40;92.40;;;;;;5022787;28;20488;-60
2022/01/03 13:12:25;;;;;;;8.83;3.30;;;11.40;92.60;;;;;;5018707;28;20458;-60
2022/01/03 13:15:01;;;;;;;8.40;3.97;;;11.40;92.60;;;;;;5018655;28;20438;-60
2022/01/03 13:17:28;;;;;;;8.73;2.67;;;11.40;92.60;;;;;;5019744;28;20437;-60